Time;durP1;ratioP1;P1;durP2;ratioP2;P2;SDS_P1;SDS_P2;PMS_P1;PMS_P2;Temp;Humidity;BMP_temperature;BMP_pressure;BME280_temperature;BME280_humidity;BME280_pressure;Samples;Min_cycle;Max_cycle;Signal;HPM_P1;HPM_P2
2022/08/30 00:02:33;;;;;;;13.43;9.68;;;;;;;;;;10310897;28;20508;-81
2022/08/30 00:07:34;;;;;;;17.48;10.00;;;;;;;;;;10284062;28;20039;-75
2022/08/30 00:12:35;;;;;;;16.75;9.73;;;;;;;;;;10284891;28;20097;-73
2022/08/30 00:17:35;;;;;;;11.50;8.82;;;;;;;;;;10268419;28;20163;-75
2022/08/30 00:22:35;;;;;;;13.00;9.18;;;;;;;;;;10323904;28;20025;-76
2022/08/30 00:27:36;;;;;;;10.23;8.77;;;;;;;;;;10324056;28;20121;-77
2022/08/30 00:32:36;;;;;;;15.10;8.60;;;;;;;;;;10313677;28;20026;-78
2022/08/30 00:37:36;;;;;;;13.90;8.52;;;;;;;;;;10282741;28;20139;-74
2022/08/30 00:42:38;;;;;;;11.13;8.45;;;;;;;;;;10284955;28;20065;-77
2022/08/30 00:47:39;;;;;;;14.02;8.50;;;;;;;;;;10316609;28;20023;-77
2022/08/30 00:52:40;;;;;;;20.02;8.98;;;;;;;;;;10320131;28;20028;-75
2022/08/30 00:57:42;;;;;;;13.13;9.57;;;;;;;;;;10282761;28;20015;-72
2022/08/30 01:02:42;;;;;;;15.50;10.45;;;;;;;;;;10282509;28;20023;-78
2022/08/30 01:07:42;;;;;;;13.40;10.77;;;;;;;;;;10316662;28;20429;-76
2022/08/30 01:12:43;;;;;;;15.75;11.32;;;;;;;;;;10289784;28;20574;-76
2022/08/30 01:17:45;;;;;;;24.10;12.55;;;;;;;;;;10282099;28;20521;-77
2022/08/30 01:22:48;;;;;;;18.45;13.02;;;;;;;;;;10285235;28;20019;-76
2022/08/30 01:27:54;;;;;;;21.48;14.75;;;;;;;;;;10323052;28;20500;-75
2022/08/30 01:32:58;;;;;;;22.60;14.73;;;;;;;;;;10320772;28;20026;-75
2022/08/30 01:37:58;;;;;;;30.40;14.32;;;;;;;;;;10282363;28;20045;-79
2022/08/30 01:42:59;;;;;;;22.67;15.23;;;;;;;;;;10282688;28;20030;-77
2022/08/30 01:47:59;;;;;;;26.00;15.20;;;;;;;;;;10280524;28;20025;-78
2022/08/30 01:52:59;;;;;;;27.45;16.15;;;;;;;;;;10282129;28;20018;-79
2022/08/30 01:58:00;;;;;;;23.10;15.88;;;;;;;;;;10281925;28;20026;-73
2022/08/30 02:03:00;;;;;;;24.35;14.77;;;;;;;;;;10280368;28;20117;-78
2022/08/30 02:08:00;;;;;;;24.60;14.37;;;;;;;;;;10280614;28;20465;-77
2022/08/30 02:13:00;;;;;;;24.15;13.82;;;;;;;;;;10279965;28;20026;-74
2022/08/30 02:18:01;;;;;;;20.73;14.63;;;;;;;;;;10305893;28;20196;-76
2022/08/30 02:23:01;;;;;;;23.10;13.68;;;;;;;;;;10284865;28;20150;-78
2022/08/30 02:28:01;;;;;;;21.08;14.80;;;;;;;;;;10296991;28;20457;-77
2022/08/30 02:33:02;;;;;;;22.63;14.60;;;;;;;;;;10307556;28;20022;-77
2022/08/30 02:38:03;;;;;;;24.23;13.82;;;;;;;;;;10279876;28;20100;-78
2022/08/30 02:43:03;;;;;;;19.05;11.00;;;;;;;;;;10311740;28;20413;-76
2022/08/30 02:48:03;;;;;;;19.90;11.10;;;;;;;;;;10278563;28;20085;-78
2022/08/30 02:53:04;;;;;;;12.97;9.97;;;;;;;;;;10299630;28;20277;-76
2022/08/30 02:58:05;;;;;;;17.42;10.10;;;;;;;;;;10303659;28;20129;-77
2022/08/30 03:03:06;;;;;;;18.55;11.13;;;;;;;;;;10278938;28;20014;-77
2022/08/30 03:08:07;;;;;;;16.63;10.13;;;;;;;;;;10297425;28;20209;-76
2022/08/30 03:13:07;;;;;;;18.67;11.30;;;;;;;;;;10277803;28;20026;-77
2022/08/30 03:18:09;;;;;;;16.20;10.18;;;;;;;;;;10277934;28;20031;-77
2022/08/30 03:23:09;;;;;;;14.43;9.93;;;;;;;;;;10294714;28;20023;-75
2022/08/30 03:28:09;;;;;;;21.73;10.48;;;;;;;;;;10291775;28;20448;-75
2022/08/30 03:33:09;;;;;;;22.50;12.60;;;;;;;;;;10301759;28;20046;-75
2022/08/30 03:38:10;;;;;;;20.42;11.43;;;;;;;;;;10309573;28;20702;-76
2022/08/30 03:43:10;;;;;;;21.27;11.93;;;;;;;;;;10312109;28;20026;-78
2022/08/30 03:48:10;;;;;;;22.15;11.60;;;;;;;;;;10298752;28;20049;-78
2022/08/30 03:53:11;;;;;;;20.25;12.48;;;;;;;;;;10317923;28;20570;-77
2022/08/30 03:58:11;;;;;;;22.43;13.07;;;;;;;;;;10307062;28;20097;-73
2022/08/30 04:03:12;;;;;;;21.92;13.48;;;;;;;;;;10316701;28;20093;-76
2022/08/30 04:08:12;;;;;;;24.33;15.13;;;;;;;;;;10311638;28;20022;-77
2022/08/30 04:13:13;;;;;;;21.90;13.63;;;;;;;;;;10300832;28;20117;-76
2022/08/30 04:18:13;;;;;;;38.63;16.45;;;;;;;;;;10284399;28;20077;-76
2022/08/30 04:23:14;;;;;;;26.47;15.70;;;;;;;;;;10303248;28;20117;-73
2022/08/30 04:28:14;;;;;;;28.30;15.18;;;;;;;;;;10283774;28;20568;-77
2022/08/30 04:33:14;;;;;;;25.65;15.70;;;;;;;;;;10284968;28;20600;-74
2022/08/30 04:38:15;;;;;;;25.58;13.15;;;;;;;;;;10297251;28;20053;-73
2022/08/30 04:43:15;;;;;;;20.67;14.27;;;;;;;;;;10300068;28;20412;-75
2022/08/30 04:48:17;;;;;;;21.65;12.98;;;;;;;;;;10283058;28;20030;-73
2022/08/30 04:53:17;;;;;;;23.40;12.73;;;;;;;;;;10303763;28;20023;-80
2022/08/30 04:58:17;;;;;;;25.48;15.07;;;;;;;;;;10299752;28;20029;-74
2022/08/30 05:03:18;;;;;;;24.40;12.45;;;;;;;;;;10282157;28;20470;-74
2022/08/30 05:08:19;;;;;;;27.45;12.80;;;;;;;;;;10302835;28;20092;-79
2022/08/30 05:13:20;;;;;;;21.05;12.40;;;;;;;;;;10282105;28;20105;-73
2022/08/30 05:18:20;;;;;;;24.98;13.75;;;;;;;;;;10313614;28;20543;-74
2022/08/30 05:23:21;;;;;;;19.55;12.57;;;;;;;;;;10298555;28;20078;-73
2022/08/30 05:28:21;;;;;;;25.45;13.52;;;;;;;;;;10280985;28;20018;-71
2022/08/30 05:33:21;;;;;;;22.35;13.30;;;;;;;;;;10288999;28;20027;-73
2022/08/30 05:38:21;;;;;;;26.23;14.27;;;;;;;;;;10294805;28;20042;-78
2022/08/30 05:43:22;;;;;;;22.17;13.48;;;;;;;;;;10310453;28;20041;-73
2022/08/30 05:48:22;;;;;;;24.92;14.38;;;;;;;;;;10284445;28;20034;-71
2022/08/30 05:53:23;;;;;;;24.13;14.68;;;;;;;;;;10302441;28;20464;-77
2022/08/30 05:58:23;;;;;;;29.90;17.92;;;;;;;;;;10302660;28;20042;-77
2022/08/30 06:03:23;;;;;;;27.98;16.85;;;;;;;;;;10300721;28;20041;-75
2022/08/30 06:08:24;;;;;;;40.95;20.48;;;;;;;;;;10326453;28;20028;-77
2022/08/30 06:13:24;;;;;;;37.93;21.53;;;;;;;;;;10336007;28;20547;-72
2022/08/30 06:18:24;;;;;;;47.28;23.55;;;;;;;;;;10328501;28;20026;-77
2022/08/30 06:23:25;;;;;;;34.47;20.70;;;;;;;;;;10336864;28;20404;-72
2022/08/30 06:28:25;;;;;;;40.33;20.33;;;;;;;;;;10326013;28;20034;-79
2022/08/30 06:33:25;;;;;;;39.10;22.33;;;;;;;;;;10328567;28;20483;-75
2022/08/30 06:38:26;;;;;;;39.58;22.77;;;;;;;;;;10326321;28;20050;-73
2022/08/30 06:43:27;;;;;;;37.38;23.27;;;;;;;;;;10324273;28;20022;-76
2022/08/30 06:48:27;;;;;;;39.97;24.35;;;;;;;;;;10321375;28;20037;-77
2022/08/30 06:53:28;;;;;;;30.23;18.37;;;;;;;;;;10330059;28;20042;-73
2022/08/30 06:58:29;;;;;;;34.10;20.63;;;;;;;;;;10319338;28;20109;-77
2022/08/30 07:03:30;;;;;;;37.58;20.80;;;;;;;;;;10322792;28;20018;-76
2022/08/30 07:08:30;;;;;;;29.97;18.90;;;;;;;;;;10319180;28;20806;-74
2022/08/30 07:13:31;;;;;;;41.55;21.77;;;;;;;;;;10317082;28;20124;-76
2022/08/30 07:18:49;;;;;;;37.65;20.58;;;;;;;;;;10324310;28;20134;-75
2022/08/30 07:23:50;;;;;;;34.92;20.95;;;;;;;;;;10322161;28;20030;-76
2022/08/30 07:28:50;;;;;;;34.40;19.70;;;;;;;;;;10325886;28;20038;-75
2022/08/30 07:33:51;;;;;;;29.85;20.08;;;;;;;;;;10333985;28;20061;-75
2022/08/30 07:38:52;;;;;;;31.08;20.35;;;;;;;;;;10322983;28;20052;-76
2022/08/30 07:43:52;;;;;;;38.00;21.35;;;;;;;;;;10325321;28;20511;-77
2022/08/30 07:48:54;;;;;;;36.57;19.67;;;;;;;;;;10333363;28;20858;-78
2022/08/30 07:53:54;;;;;;;34.28;21.13;;;;;;;;;;10329580;28;20068;-74
2022/08/30 07:58:55;;;;;;;30.70;20.08;;;;;;;;;;10312918;28;20890;-80
2022/08/30 08:03:55;;;;;;;29.15;19.40;;;;;;;;;;10329514;28;20018;-76
2022/08/30 08:09:00;;;;;;;35.20;21.27;;;;;;;;;;10336022;28;20038;-78
2022/08/30 08:14:01;;;;;;;39.58;22.48;;;;;;;;;;10339180;28;20030;-77
2022/08/30 08:19:03;;;;;;;45.25;25.50;;;;;;;;;;10330143;28;20030;-78
2022/08/30 08:24:04;;;;;;;43.70;26.05;;;;;;;;;;10336958;28;20022;-78
2022/08/30 08:29:05;;;;;;;52.75;28.17;;;;;;;;;;10315112;28;20069;-79
2022/08/30 08:34:06;;;;;;;47.92;24.45;;;;;;;;;;10342082;28;20058;-80
2022/08/30 08:39:07;;;;;;;47.20;26.58;;;;;;;;;;10326746;28;20086;-78
2022/08/30 08:44:21;;;;;;;49.38;27.08;;;;;;;;;;10338226;28;20065;-79
2022/08/30 08:49:21;;;;;;;40.58;23.10;;;;;;;;;;10325050;28;20062;-79
2022/08/30 08:54:21;;;;;;;42.43;23.13;;;;;;;;;;10331291;28;20551;-79
2022/08/30 08:59:21;;;;;;;31.77;19.33;;;;;;;;;;10337208;28;20532;-80
2022/08/30 09:04:25;;;;;;;31.95;18.92;;;;;;;;;;10332645;28;20121;-80
2022/08/30 09:09:28;;;;;;;24.38;13.93;;;;;;;;;;10345449;28;20508;-79
2022/08/30 09:14:31;;;;;;;26.80;13.93;;;;;;;;;;10329576;28;20066;-80
2022/08/30 09:19:34;;;;;;;20.70;12.25;;;;;;;;;;10331874;28;20061;-81
2022/08/30 09:24:44;;;;;;;18.80;11.15;;;;;;;;;;10334318;28;20038;-78
2022/08/30 09:30:00;;;;;;;18.17;9.55;;;;;;;;;;10334755;28;20408;-80
2022/08/30 09:35:00;;;;;;;25.35;10.00;;;;;;;;;;10333772;28;20031;-77
2022/08/30 09:40:07;;;;;;;20.35;10.38;;;;;;;;;;10330545;28;20073;-77
2022/08/30 09:45:17;;;;;;;15.77;8.35;;;;;;;;;;10339065;28;20169;-78
2022/08/30 09:50:19;;;;;;;13.85;6.65;;;;;;;;;;10337510;28;20034;-78
2022/08/30 09:55:25;;;;;;;7.80;5.85;;;;;;;;;;10346109;28;20092;-77
2022/08/30 10:00:27;;;;;;;13.60;5.17;;;;;;;;;;10333276;28;20031;-78
2022/08/30 10:05:43;;;;;;;13.80;5.32;;;;;;;;;;10327073;28;20035;-78
2022/08/30 10:10:53;;;;;;;15.00;7.78;;;;;;;;;;10323666;28;20030;-78
2022/08/30 10:15:58;;;;;;;13.25;7.32;;;;;;;;;;10338752;28;20029;-78
2022/08/30 10:21:17;;;;;;;26.33;8.25;;;;;;;;;;10327390;28;20485;-78
2022/08/30 10:26:29;;;;;;;17.30;8.45;;;;;;;;;;10329663;28;20039;-78
2022/08/30 10:31:33;;;;;;;15.20;7.68;;;;;;;;;;10328387;28;20927;-78
2022/08/30 10:37:06;;;;;;;12.35;6.32;;;;;;;;;;10331593;28;20464;-79
2022/08/30 10:42:24;;;;;;;14.52;6.85;;;;;;;;;;10291987;28;20050;-78
2022/08/30 10:47:31;;;;;;;17.95;7.05;;;;;;;;;;10325422;28;20472;-78
2022/08/30 10:52:40;;;;;;;14.48;7.03;;;;;;;;;;10331409;28;20362;-78
2022/08/30 10:57:41;;;;;;;19.42;7.20;;;;;;;;;;10319955;28;20038;-78
2022/08/30 11:02:56;;;;;;;18.23;7.10;;;;;;;;;;10329395;28;20038;-78
2022/08/30 11:08:15;;;;;;;12.55;6.93;;;;;;;;;;10326647;28;20030;-78
2022/08/30 11:13:22;;;;;;;18.27;7.65;;;;;;;;;;10339558;28;20044;-78
2022/08/30 11:18:24;;;;;;;12.77;6.50;;;;;;;;;;10314406;28;20108;-79
2022/08/30 11:23:26;;;;;;;17.40;6.80;;;;;;;;;;10324015;28;20034;-78
2022/08/30 11:28:35;;;;;;;13.13;6.63;;;;;;;;;;10333971;28;20041;-78
2022/08/30 11:33:39;;;;;;;18.08;6.65;;;;;;;;;;10327089;28;20026;-78
2022/08/30 11:38:40;;;;;;;14.18;7.88;;;;;;;;;;10331846;28;20548;-79
2022/08/30 11:43:43;;;;;;;13.57;7.10;;;;;;;;;;10330578;28;20213;-78
2022/08/30 11:48:43;;;;;;;17.60;8.32;;;;;;;;;;10333964;28;20034;-76
2022/08/30 11:54:13;;;;;;;11.77;7.53;;;;;;;;;;10337256;28;20112;-78
2022/08/30 11:59:31;;;;;;;13.07;7.60;;;;;;;;;;10318027;28;20416;-74
2022/08/30 12:04:45;;;;;;;11.90;7.30;;;;;;;;;;10336086;28;20407;-79
2022/08/30 12:09:46;;;;;;;13.25;7.03;;;;;;;;;;10324530;28;20367;-76
2022/08/30 12:14:50;;;;;;;27.67;8.73;;;;;;;;;;10332052;28;20079;-78
2022/08/30 12:19:50;;;;;;;11.57;7.97;;;;;;;;;;10333174;28;20032;-79
2022/08/30 12:24:51;;;;;;;16.42;7.95;;;;;;;;;;10327460;28;20033;-78
2022/08/30 12:30:00;;;;;;;14.27;8.23;;;;;;;;;;10334012;28;20109;-81
2022/08/30 12:35:02;;;;;;;16.88;8.75;;;;;;;;;;10331253;28;20551;-79
2022/08/30 12:40:08;;;;;;;13.75;8.27;;;;;;;;;;10336569;28;20065;-80
2022/08/30 12:45:16;;;;;;;17.58;8.48;;;;;;;;;;10325782;28;20041;-80
2022/08/30 12:50:24;;;;;;;13.48;8.30;;;;;;;;;;10329612;28;20118;-82
2022/08/30 12:55:29;;;;;;;12.02;7.68;;;;;;;;;;10341774;28;20045;-81
2022/08/30 13:00:33;;;;;;;24.33;9.27;;;;;;;;;;10325468;28;20397;-77
2022/08/30 13:05:39;;;;;;;12.10;9.15;;;;;;;;;;10308214;28;20033;-80
2022/08/30 13:11:06;;;;;;;15.63;7.95;;;;;;;;;;10312353;28;20570;-77
2022/08/30 13:16:24;;;;;;;25.92;9.93;;;;;;;;;;10327844;28;20133;-80
2022/08/30 13:21:28;;;;;;;19.88;9.95;;;;;;;;;;10331502;28;20114;-79
2022/08/30 13:26:32;;;;;;;15.05;8.73;;;;;;;;;;10341660;28;20026;-78
2022/08/30 13:31:35;;;;;;;21.10;9.43;;;;;;;;;;10329777;28;20030;-81
2022/08/30 13:36:36;;;;;;;16.80;9.93;;;;;;;;;;10327730;28;20025;-76
2022/08/30 13:41:37;;;;;;;13.27;8.88;;;;;;;;;;10335122;28;20111;-79
2022/08/30 13:46:38;;;;;;;16.67;10.07;;;;;;;;;;10324990;28;20166;-78
2022/08/30 13:51:38;;;;;;;16.60;10.23;;;;;;;;;;10330492;28;20110;-73
2022/08/30 13:56:39;;;;;;;25.80;9.80;;;;;;;;;;10303438;28;20493;-78
2022/08/30 14:01:39;;;;;;;18.92;12.48;;;;;;;;;;10276982;28;20035;-77
2022/08/30 14:06:40;;;;;;;14.63;9.68;;;;;;;;;;10277605;28;20026;-79
2022/08/30 14:11:40;;;;;;;13.73;9.30;;;;;;;;;;10299844;28;20027;-78
2022/08/30 14:16:42;;;;;;;15.33;9.60;;;;;;;;;;10275895;28;20019;-77
2022/08/30 14:21:45;;;;;;;20.52;10.48;;;;;;;;;;10312009;28;20265;-78
2022/08/30 14:26:47;;;;;;;19.13;9.82;;;;;;;;;;10318924;28;20033;-78
2022/08/30 14:31:47;;;;;;;16.27;10.35;;;;;;;;;;10278337;28;20390;-85
2022/08/30 14:36:48;;;;;;;19.43;10.90;;;;;;;;;;10261251;28;20035;-78
2022/08/30 14:41:53;;;;;;;17.17;9.93;;;;;;;;;;10297795;28;20023;-77
2022/08/30 14:46:53;;;;;;;19.23;11.02;;;;;;;;;;10320329;28;20050;-73
2022/08/30 14:51:54;;;;;;;27.38;11.23;;;;;;;;;;10327172;28;20029;-84
2022/08/30 14:56:54;;;;;;;23.00;12.43;;;;;;;;;;10305015;28;20041;-78
2022/08/30 15:01:55;;;;;;;21.58;11.40;;;;;;;;;;10277056;28;20049;-77
2022/08/30 15:06:55;;;;;;;15.55;12.23;;;;;;;;;;10276736;28;20269;-76
2022/08/30 15:11:56;;;;;;;21.40;12.63;;;;;;;;;;10277333;28;20552;-79
2022/08/30 15:16:57;;;;;;;18.75;11.65;;;;;;;;;;10276810;28;20127;-74
2022/08/30 15:22:01;;;;;;;23.23;12.07;;;;;;;;;;10277579;28;20023;-78
2022/08/30 15:27:02;;;;;;;24.10;13.50;;;;;;;;;;10276434;28;20539;-78
2022/08/30 15:32:03;;;;;;;22.13;12.10;;;;;;;;;;10276432;28;20046;-78
2022/08/30 15:37:03;;;;;;;20.65;12.70;;;;;;;;;;10312829;28;20294;-79
2022/08/30 15:42:04;;;;;;;20.77;11.05;;;;;;;;;;10373561;23;20279;-78
2022/08/30 15:47:04;;;;;;;17.50;11.63;;;;;;;;;;10397825;28;20030;-80
2022/08/30 15:52:05;;;;;;;19.92;11.57;;;;;;;;;;10398383;28;20010;-77
2022/08/30 15:57:05;;;;;;;24.20;11.43;;;;;;;;;;10398475;28;20037;-78
2022/08/30 16:02:05;;;;;;;25.27;12.07;;;;;;;;;;10397472;28;20438;-78
2022/08/30 16:07:06;;;;;;;23.23;13.32;;;;;;;;;;10360955;28;20112;-77
2022/08/30 16:12:06;;;;;;;19.95;12.45;;;;;;;;;;10371709;28;20009;-74
2022/08/30 16:17:07;;;;;;;22.15;12.80;;;;;;;;;;10395796;28;20029;-74
2022/08/30 16:22:07;;;;;;;21.50;12.10;;;;;;;;;;10397629;28;20133;-73
2022/08/30 16:27:07;;;;;;;29.50;14.38;;;;;;;;;;10397239;28;20475;-78
2022/08/30 16:32:08;;;;;;;23.53;14.43;;;;;;;;;;10384427;28;20056;-77
2022/08/30 16:37:08;;;;;;;23.65;15.80;;;;;;;;;;10391971;28;20030;-79
2022/08/30 16:42:08;;;;;;;22.40;14.25;;;;;;;;;;10393058;28;20555;-79
2022/08/30 16:47:11;;;;;;;24.53;14.30;;;;;;;;;;10390772;28;20091;-77
2022/08/30 16:52:12;;;;;;;29.77;14.93;;;;;;;;;;10388669;28;20353;-81
2022/08/30 16:57:12;;;;;;;26.90;15.25;;;;;;;;;;10393678;28;20025;-79
2022/08/30 17:02:12;;;;;;;31.73;16.02;;;;;;;;;;10394756;28;20017;-78
2022/08/30 17:07:12;;;;;;;31.33;16.05;;;;;;;;;;10385569;28;20182;-79
2022/08/30 17:12:13;;;;;;;32.60;18.23;;;;;;;;;;10388515;28;20038;-78
2022/08/30 17:17:13;;;;;;;25.83;15.40;;;;;;;;;;10392269;28;20034;-78
2022/08/30 17:22:13;;;;;;;34.60;17.80;;;;;;;;;;10388810;28;20384;-79
2022/08/30 17:27:13;;;;;;;35.35;17.10;;;;;;;;;;10391708;28;20041;-80
2022/08/30 17:32:14;;;;;;;38.40;16.35;;;;;;;;;;10393372;28;20038;-82
2022/08/30 17:37:14;;;;;;;35.08;20.20;;;;;;;;;;10392117;28;20032;-80
2022/08/30 17:42:15;;;;;;;25.15;16.15;;;;;;;;;;10390568;28;20084;-79
2022/08/30 17:47:15;;;;;;;25.70;16.87;;;;;;;;;;10383266;28;20025;-76
2022/08/30 17:52:15;;;;;;;38.40;19.23;;;;;;;;;;10442825;23;20311;-81
2022/08/30 17:57:16;;;;;;;26.10;16.77;;;;;;;;;;10448870;28;20029;-79
2022/08/30 18:02:17;;;;;;;32.00;18.13;;;;;;;;;;10425241;28;20029;-78
2022/08/30 18:07:17;;;;;;;34.28;18.15;;;;;;;;;;10427378;28;20028;-79
2022/08/30 18:12:19;;;;;;;36.42;20.85;;;;;;;;;;10431578;28;20069;-79
2022/08/30 18:17:19;;;;;;;31.57;18.13;;;;;;;;;;10419246;28;20037;-73
2022/08/30 18:22:19;;;;;;;31.23;19.07;;;;;;;;;;10438416;28;20526;-77
2022/08/30 18:27:19;;;;;;;30.30;16.63;;;;;;;;;;10440095;28;20037;-80
2022/08/30 18:32:20;;;;;;;32.55;16.83;;;;;;;;;;10412815;28;20115;-79
2022/08/30 18:37:20;;;;;;;32.28;16.55;;;;;;;;;;10427891;28;20521;-78
2022/08/30 18:42:20;;;;;;;37.05;19.80;;;;;;;;;;10431280;28;20034;-79
2022/08/30 18:47:22;;;;;;;38.65;19.33;;;;;;;;;;10428574;28;20033;-79
2022/08/30 18:52:24;;;;;;;41.83;19.15;;;;;;;;;;10421621;28;20489;-78
2022/08/30 18:57:24;;;;;;;28.20;17.30;;;;;;;;;;10418766;28;20225;-76
2022/08/30 19:02:24;;;;;;;32.03;17.80;;;;;;;;;;10426230;28;20071;-79
2022/08/30 19:07:24;;;;;;;34.28;17.90;;;;;;;;;;10431336;28;20040;-81
2022/08/30 19:12:25;;;;;;;41.25;19.20;;;;;;;;;;10406173;28;20028;-78
2022/08/30 19:17:25;;;;;;;33.17;18.17;;;;;;;;;;10409074;28;20021;-80
2022/08/30 19:22:25;;;;;;;27.52;17.33;;;;;;;;;;10417711;28;20479;-81
2022/08/30 19:27:25;;;;;;;32.28;17.75;;;;;;;;;;10423572;28;20455;-80
2022/08/30 19:32:26;;;;;;;35.70;18.75;;;;;;;;;;10407637;28;20079;-80
2022/08/30 19:37:26;;;;;;;32.40;18.13;;;;;;;;;;10412541;28;20476;-76
2022/08/30 19:42:26;;;;;;;30.60;17.98;;;;;;;;;;10404796;28;20551;-80
2022/08/30 19:47:27;;;;;;;34.43;18.17;;;;;;;;;;10410503;28;20075;-78
2022/08/30 19:52:29;;;;;;;30.97;18.13;;;;;;;;;;10421703;28;20122;-79
2022/08/30 19:57:29;;;;;;;33.95;17.55;;;;;;;;;;10428617;28;20800;-78
2022/08/30 20:02:30;;;;;;;28.27;16.97;;;;;;;;;;10425350;28;20033;-79
2022/08/30 20:07:34;;;;;;;27.60;17.02;;;;;;;;;;10427410;28;20279;-79
2022/08/30 20:12:34;;;;;;;29.35;15.45;;;;;;;;;;10429853;28;20349;-77
2022/08/30 20:17:35;;;;;;;23.38;15.30;;;;;;;;;;10436806;28;20128;-77
2022/08/30 20:22:35;;;;;;;22.92;14.40;;;;;;;;;;10431158;28;20020;-78
2022/08/30 20:27:36;;;;;;;30.35;16.08;;;;;;;;;;10421462;28;20026;-79
2022/08/30 20:32:36;;;;;;;32.08;16.92;;;;;;;;;;10421381;22;20068;-77
2022/08/30 20:37:37;;;;;;;33.53;16.07;;;;;;;;;;10359467;28;20093;-78
2022/08/30 20:42:40;;;;;;;28.73;15.82;;;;;;;;;;10324603;28;20282;-78
2022/08/30 20:47:41;;;;;;;22.25;14.35;;;;;;;;;;10336155;28;20053;-78
2022/08/30 20:52:42;;;;;;;19.90;14.45;;;;;;;;;;10320770;28;20558;-74
2022/08/30 20:57:42;;;;;;;27.25;14.27;;;;;;;;;;10314531;28;20027;-78
2022/08/30 21:02:43;;;;;;;25.05;16.10;;;;;;;;;;10315381;28;20027;-78
2022/08/30 21:07:44;;;;;;;23.80;15.52;;;;;;;;;;10332507;28;20030;-79
2022/08/30 21:12:44;;;;;;;23.83;15.93;;;;;;;;;;10323025;28;20038;-77
2022/08/30 21:17:45;;;;;;;24.40;14.02;;;;;;;;;;10316078;28;20030;-82
2022/08/30 21:22:46;;;;;;;23.40;14.27;;;;;;;;;;10328722;28;20075;-76
2022/08/30 21:27:46;;;;;;;26.50;14.18;;;;;;;;;;10332811;28;20494;-78
2022/08/30 21:32:46;;;;;;;24.27;14.60;;;;;;;;;;10313976;28;20531;-79
2022/08/30 21:37:46;;;;;;;23.73;14.85;;;;;;;;;;10313809;28;20487;-81
2022/08/30 21:42:47;;;;;;;26.42;15.55;;;;;;;;;;10323038;28;20526;-79
2022/08/30 21:47:47;;;;;;;21.20;13.73;;;;;;;;;;10306272;28;20180;-79
2022/08/30 21:52:48;;;;;;;26.38;14.75;;;;;;;;;;10322222;28;20053;-79
2022/08/30 21:57:48;;;;;;;22.98;14.57;;;;;;;;;;10314429;28;20041;-79
2022/08/30 22:02:48;;;;;;;26.50;16.30;;;;;;;;;;10308760;28;20030;-80
2022/08/30 22:07:48;;;;;;;21.08;13.75;;;;;;;;;;10313125;28;20092;-80
2022/08/30 22:12:49;;;;;;;26.65;14.90;;;;;;;;;;10327627;28;20018;-85
2022/08/30 22:17:49;;;;;;;25.50;15.88;;;;;;;;;;10330555;28;20030;-78
2022/08/30 22:22:49;;;;;;;26.08;15.10;;;;;;;;;;10305595;28;20019;-79
2022/08/30 22:27:49;;;;;;;25.40;16.55;;;;;;;;;;10303795;28;20514;-78
2022/08/30 22:32:50;;;;;;;27.05;17.17;;;;;;;;;;10324992;28;20088;-79
2022/08/30 22:37:50;;;;;;;23.35;15.95;;;;;;;;;;10325308;28;20018;-79
2022/08/30 22:42:51;;;;;;;28.50;16.35;;;;;;;;;;10306330;28;20068;-78
2022/08/30 22:47:51;;;;;;;29.50;17.25;;;;;;;;;;10305821;28;20034;-79
2022/08/30 22:52:51;;;;;;;25.73;16.92;;;;;;;;;;10313603;28;20037;-78
2022/08/30 22:57:52;;;;;;;30.00;16.95;;;;;;;;;;10317281;28;20030;-78
2022/08/30 23:02:53;;;;;;;32.45;16.75;;;;;;;;;;10296822;28;20116;-78
2022/08/30 23:07:53;;;;;;;29.67;17.87;;;;;;;;;;10332948;28;20034;-78
2022/08/30 23:12:54;;;;;;;27.42;16.42;;;;;;;;;;10316743;28;20026;-77
2022/08/30 23:17:55;;;;;;;27.23;16.35;;;;;;;;;;10318470;28;20029;-77
